METAR
LICR 212050Z 15006KT 9999 FEW030 23/18 Q1022
TAF